sensor_id;sensor_type;location;lat;lon;timestamp;P1;durP1;ratioP1;P2;durP2;ratioP2
6985;SDS011;3533;51.246;6.850;2023-11-18T00:00:33;4.70;;;4.30;;
6985;SDS011;3533;51.246;6.850;2023-11-18T00:02:59;4.57;;;4.27;;
6985;SDS011;3533;51.246;6.850;2023-11-18T00:05:25;4.67;;;4.37;;
6985;SDS011;3533;51.246;6.850;2023-11-18T00:07:50;5.63;;;4.37;;
6985;SDS011;3533;51.246;6.850;2023-11-18T00:10:16;4.53;;;4.33;;
6985;SDS011;3533;51.246;6.850;2023-11-18T00:12:42;5.10;;;4.70;;
6985;SDS011;3533;51.246;6.850;2023-11-18T00:15:08;4.30;;;4.10;;
6985;SDS011;3533;51.246;6.850;2023-11-18T00:17:35;4.67;;;4.27;;
6985;SDS011;3533;51.246;6.850;2023-11-18T00:20:01;5.33;;;4.93;;
6985;SDS011;3533;51.246;6.850;2023-11-18T00:22:33;4.17;;;3.97;;
6985;SDS011;3533;51.246;6.850;2023-11-18T00:24:59;4.47;;;4.17;;
6985;SDS011;3533;51.246;6.850;2023-11-18T00:27:24;4.70;;;4.40;;
6985;SDS011;3533;51.246;6.850;2023-11-18T00:29:50;4.53;;;4.20;;
6985;SDS011;3533;51.246;6.850;2023-11-18T00:32:15;4.17;;;3.87;;
6985;SDS011;3533;51.246;6.850;2023-11-18T00:34:41;4.67;;;4.37;;
6985;SDS011;3533;51.246;6.850;2023-11-18T00:37:07;4.60;;;4.30;;
6985;SDS011;3533;51.246;6.850;2023-11-18T00:39:32;4.03;;;3.80;;
6985;SDS011;3533;51.246;6.850;2023-11-18T00:41:58;4.17;;;3.97;;
6985;SDS011;3533;51.246;6.850;2023-11-18T00:44:24;5.07;;;4.67;;
6985;SDS011;3533;51.246;6.850;2023-11-18T00:46:49;4.60;;;4.27;;
6985;SDS011;3533;51.246;6.850;2023-11-18T00:49:15;5.30;;;4.90;;
6985;SDS011;3533;51.246;6.850;2023-11-18T00:51:40;4.70;;;4.40;;
6985;SDS011;3533;51.246;6.850;2023-11-18T00:54:06;3.90;;;3.70;;
6985;SDS011;3533;51.246;6.850;2023-11-18T00:56:32;4.67;;;4.37;;
6985;SDS011;3533;51.246;6.850;2023-11-18T00:58:58;4.50;;;4.20;;
6985;SDS011;3533;51.246;6.850;2023-11-18T01:01:23;5.83;;;4.63;;
6985;SDS011;3533;51.246;6.850;2023-11-18T01:03:49;4.07;;;3.80;;
6985;SDS011;3533;51.246;6.850;2023-11-18T01:06:15;4.80;;;4.50;;
6985;SDS011;3533;51.246;6.850;2023-11-18T01:08:44;4.10;;;3.90;;
6985;SDS011;3533;51.246;6.850;2023-11-18T01:11:10;4.13;;;3.87;;
6985;SDS011;3533;51.246;6.850;2023-11-18T01:13:35;3.60;;;3.40;;
6985;SDS011;3533;51.246;6.850;2023-11-18T01:16:01;4.60;;;4.30;;
6985;SDS011;3533;51.246;6.850;2023-11-18T01:18:29;4.40;;;4.20;;
6985;SDS011;3533;51.246;6.850;2023-11-18T01:20:55;4.10;;;3.90;;
6985;SDS011;3533;51.246;6.850;2023-11-18T01:23:20;3.93;;;3.73;;
6985;SDS011;3533;51.246;6.850;2023-11-18T01:25:46;4.67;;;4.40;;
6985;SDS011;3533;51.246;6.850;2023-11-18T01:28:11;4.10;;;3.90;;
6985;SDS011;3533;51.246;6.850;2023-11-18T01:30:37;4.17;;;3.97;;
6985;SDS011;3533;51.246;6.850;2023-11-18T01:33:02;4.27;;;4.07;;
6985;SDS011;3533;51.246;6.850;2023-11-18T01:35:29;4.40;;;4.10;;
6985;SDS011;3533;51.246;6.850;2023-11-18T01:37:54;4.73;;;4.23;;
6985;SDS011;3533;51.246;6.850;2023-11-18T01:40:20;14.07;;;4.17;;
6985;SDS011;3533;51.246;6.850;2023-11-18T01:42:46;4.60;;;4.30;;
6985;SDS011;3533;51.246;6.850;2023-11-18T01:45:12;3.57;;;3.37;;
6985;SDS011;3533;51.246;6.850;2023-11-18T01:47:39;4.40;;;4.10;;
6985;SDS011;3533;51.246;6.850;2023-11-18T01:50:06;4.07;;;3.87;;
6985;SDS011;3533;51.246;6.850;2023-11-18T01:52:33;4.50;;;4.30;;
6985;SDS011;3533;51.246;6.850;2023-11-18T01:55:00;4.40;;;4.10;;
6985;SDS011;3533;51.246;6.850;2023-11-18T01:57:31;3.70;;;3.50;;
6985;SDS011;3533;51.246;6.850;2023-11-18T01:59:58;3.70;;;3.50;;
6985;SDS011;3533;51.246;6.850;2023-11-18T02:02:23;4.30;;;4.10;;
6985;SDS011;3533;51.246;6.850;2023-11-18T02:04:51;4.20;;;3.97;;
6985;SDS011;3533;51.246;6.850;2023-11-18T02:07:17;4.03;;;3.73;;
6985;SDS011;3533;51.246;6.850;2023-11-18T02:09:43;4.37;;;4.07;;
6985;SDS011;3533;51.246;6.850;2023-11-18T02:14:48;4.27;;;4.07;;
6985;SDS011;3533;51.246;6.850;2023-11-18T02:17:14;4.73;;;4.33;;
6985;SDS011;3533;51.246;6.850;2023-11-18T02:19:43;3.40;;;3.20;;
6985;SDS011;3533;51.246;6.850;2023-11-18T02:22:09;4.07;;;3.87;;
6985;SDS011;3533;51.246;6.850;2023-11-18T02:24:36;4.20;;;4.00;;
6985;SDS011;3533;51.246;6.850;2023-11-18T02:27:02;4.10;;;3.87;;
6985;SDS011;3533;51.246;6.850;2023-11-18T02:29:33;4.57;;;4.27;;
6985;SDS011;3533;51.246;6.850;2023-11-18T02:32:08;3.60;;;3.40;;
6985;SDS011;3533;51.246;6.850;2023-11-18T02:37:36;4.60;;;4.30;;
6985;SDS011;3533;51.246;6.850;2023-11-18T02:40:07;4.70;;;4.40;;
6985;SDS011;3533;51.246;6.850;2023-11-18T02:42:39;4.57;;;4.27;;
6985;SDS011;3533;51.246;6.850;2023-11-18T02:45:07;4.20;;;4.00;;
6985;SDS011;3533;51.246;6.850;2023-11-18T02:47:37;4.13;;;3.93;;
6985;SDS011;3533;51.246;6.850;2023-11-18T02:50:03;4.13;;;3.83;;
6985;SDS011;3533;51.246;6.850;2023-11-18T02:52:35;4.00;;;3.80;;
6985;SDS011;3533;51.246;6.850;2023-11-18T02:55:05;3.93;;;3.63;;
6985;SDS011;3533;51.246;6.850;2023-11-18T02:57:33;4.30;;;4.10;;
6985;SDS011;3533;51.246;6.850;2023-11-18T02:59:59;4.27;;;4.00;;
6985;SDS011;3533;51.246;6.850;2023-11-18T03:02:29;4.33;;;3.93;;
6985;SDS011;3533;51.246;6.850;2023-11-18T03:04:59;4.60;;;4.40;;
6985;SDS011;3533;51.246;6.850;2023-11-18T03:07:25;3.90;;;3.60;;
6985;SDS011;3533;51.246;6.850;2023-11-18T03:09:52;3.83;;;3.63;;
6985;SDS011;3533;51.246;6.850;2023-11-18T03:12:22;4.50;;;4.20;;
6985;SDS011;3533;51.246;6.850;2023-11-18T03:14:47;4.10;;;3.80;;
6985;SDS011;3533;51.246;6.850;2023-11-18T03:17:13;3.70;;;3.50;;
6985;SDS011;3533;51.246;6.850;2023-11-18T03:19:39;3.77;;;3.57;;
6985;SDS011;3533;51.246;6.850;2023-11-18T03:22:04;3.73;;;3.53;;
6985;SDS011;3533;51.246;6.850;2023-11-18T03:24:30;5.43;;;3.60;;
6985;SDS011;3533;51.246;6.850;2023-11-18T03:26:55;3.90;;;3.70;;
6985;SDS011;3533;51.246;6.850;2023-11-18T03:29:21;3.80;;;3.60;;
6985;SDS011;3533;51.246;6.850;2023-11-18T03:31:48;3.90;;;3.70;;
6985;SDS011;3533;51.246;6.850;2023-11-18T03:34:15;3.80;;;3.60;;
6985;SDS011;3533;51.246;6.850;2023-11-18T03:36:41;3.77;;;3.57;;
6985;SDS011;3533;51.246;6.850;2023-11-18T03:39:06;3.80;;;3.60;;
6985;SDS011;3533;51.246;6.850;2023-11-18T03:41:32;4.20;;;3.80;;
6985;SDS011;3533;51.246;6.850;2023-11-18T03:43:57;4.07;;;3.87;;
6985;SDS011;3533;51.246;6.850;2023-11-18T03:46:23;3.93;;;3.73;;
6985;SDS011;3533;51.246;6.850;2023-11-18T03:48:48;3.83;;;3.63;;
6985;SDS011;3533;51.246;6.850;2023-11-18T03:51:14;3.57;;;3.37;;
6985;SDS011;3533;51.246;6.850;2023-11-18T03:53:42;3.53;;;3.20;;
6985;SDS011;3533;51.246;6.850;2023-11-18T03:56:08;3.67;;;3.47;;
6985;SDS011;3533;51.246;6.850;2023-11-18T03:58:34;3.57;;;3.30;;
6985;SDS011;3533;51.246;6.850;2023-11-18T04:01:00;3.43;;;3.23;;
6985;SDS011;3533;51.246;6.850;2023-11-18T04:03:26;5.03;;;3.20;;
6985;SDS011;3533;51.246;6.850;2023-11-18T04:05:52;3.53;;;3.33;;
6985;SDS011;3533;51.246;6.850;2023-11-18T04:08:18;3.70;;;3.50;;
6985;SDS011;3533;51.246;6.850;2023-11-18T04:10:43;3.73;;;3.53;;
6985;SDS011;3533;51.246;6.850;2023-11-18T04:13:09;3.67;;;3.47;;
6985;SDS011;3533;51.246;6.850;2023-11-18T04:15:34;4.30;;;4.00;;
6985;SDS011;3533;51.246;6.850;2023-11-18T04:18:00;3.70;;;3.50;;
6985;SDS011;3533;51.246;6.850;2023-11-18T04:20:26;3.70;;;3.50;;
6985;SDS011;3533;51.246;6.850;2023-11-18T04:22:52;3.80;;;3.60;;
6985;SDS011;3533;51.246;6.850;2023-11-18T04:25:19;3.70;;;3.50;;
6985;SDS011;3533;51.246;6.850;2023-11-18T04:27:46;3.90;;;3.70;;
6985;SDS011;3533;51.246;6.850;2023-11-18T04:30:12;3.83;;;3.63;;
6985;SDS011;3533;51.246;6.850;2023-11-18T04:32:38;4.00;;;3.80;;
6985;SDS011;3533;51.246;6.850;2023-11-18T04:35:03;5.50;;;3.83;;
6985;SDS011;3533;51.246;6.850;2023-11-18T04:37:32;3.53;;;3.33;;
6985;SDS011;3533;51.246;6.850;2023-11-18T04:39:59;3.80;;;3.60;;
6985;SDS011;3533;51.246;6.850;2023-11-18T04:42:25;3.37;;;3.17;;
6985;SDS011;3533;51.246;6.850;2023-11-18T04:44:50;4.27;;;3.87;;
6985;SDS011;3533;51.246;6.850;2023-11-18T04:47:16;4.10;;;3.90;;
6985;SDS011;3533;51.246;6.850;2023-11-18T04:49:43;3.50;;;3.30;;
6985;SDS011;3533;51.246;6.850;2023-11-18T04:52:09;3.63;;;3.43;;
6985;SDS011;3533;51.246;6.850;2023-11-18T04:54:35;3.77;;;3.57;;
6985;SDS011;3533;51.246;6.850;2023-11-18T04:57:01;3.57;;;3.37;;
6985;SDS011;3533;51.246;6.850;2023-11-18T04:59:27;4.07;;;3.77;;
6985;SDS011;3533;51.246;6.850;2023-11-18T05:01:52;3.40;;;3.20;;
6985;SDS011;3533;51.246;6.850;2023-11-18T05:04:18;3.70;;;3.50;;
6985;SDS011;3533;51.246;6.850;2023-11-18T05:06:44;3.53;;;3.33;;
6985;SDS011;3533;51.246;6.850;2023-11-18T05:09:09;2.87;;;2.70;;
6985;SDS011;3533;51.246;6.850;2023-11-18T05:11:35;3.07;;;2.87;;
6985;SDS011;3533;51.246;6.850;2023-11-18T05:14:01;3.80;;;3.60;;
6985;SDS011;3533;51.246;6.850;2023-11-18T05:16:28;3.40;;;3.20;;
6985;SDS011;3533;51.246;6.850;2023-11-18T05:18:54;3.77;;;3.57;;
6985;SDS011;3533;51.246;6.850;2023-11-18T05:21:20;3.70;;;3.50;;
6985;SDS011;3533;51.246;6.850;2023-11-18T05:23:46;3.17;;;2.97;;
6985;SDS011;3533;51.246;6.850;2023-11-18T05:26:12;3.37;;;3.17;;
6985;SDS011;3533;51.246;6.850;2023-11-18T05:28:39;3.83;;;3.53;;
6985;SDS011;3533;51.246;6.850;2023-11-18T05:31:04;3.43;;;3.23;;
6985;SDS011;3533;51.246;6.850;2023-11-18T05:33:31;3.20;;;3.00;;
6985;SDS011;3533;51.246;6.850;2023-11-18T05:35:59;3.50;;;3.30;;
6985;SDS011;3533;51.246;6.850;2023-11-18T05:38:24;2.90;;;2.70;;
6985;SDS011;3533;51.246;6.850;2023-11-18T05:40:52;3.53;;;3.33;;
6985;SDS011;3533;51.246;6.850;2023-11-18T05:43:28;3.17;;;2.97;;
6985;SDS011;3533;51.246;6.850;2023-11-18T05:46:01;2.80;;;2.70;;
6985;SDS011;3533;51.246;6.850;2023-11-18T05:48:46;4.03;;;3.73;;
6985;SDS011;3533;51.246;6.850;2023-11-18T05:51:12;3.27;;;3.07;;
6985;SDS011;3533;51.246;6.850;2023-11-18T05:53:41;3.63;;;3.43;;
6985;SDS011;3533;51.246;6.850;2023-11-18T05:56:10;4.07;;;3.77;;
6985;SDS011;3533;51.246;6.850;2023-11-18T05:58:39;3.40;;;3.20;;
6985;SDS011;3533;51.246;6.850;2023-11-18T06:01:05;3.20;;;3.00;;
6985;SDS011;3533;51.246;6.850;2023-11-18T06:03:36;3.40;;;3.20;;
6985;SDS011;3533;51.246;6.850;2023-11-18T06:06:08;3.30;;;3.10;;
6985;SDS011;3533;51.246;6.850;2023-11-18T06:08:35;3.17;;;2.90;;
6985;SDS011;3533;51.246;6.850;2023-11-18T06:11:01;3.63;;;3.43;;
6985;SDS011;3533;51.246;6.850;2023-11-18T06:13:37;2.97;;;2.80;;
6985;SDS011;3533;51.246;6.850;2023-11-18T06:16:22;3.20;;;3.00;;
6985;SDS011;3533;51.246;6.850;2023-11-18T06:18:52;3.00;;;2.80;;
6985;SDS011;3533;51.246;6.850;2023-11-18T06:21:20;4.03;;;3.83;;
6985;SDS011;3533;51.246;6.850;2023-11-18T06:23:49;3.20;;;3.00;;
6985;SDS011;3533;51.246;6.850;2023-11-18T06:26:15;2.80;;;2.60;;
6985;SDS011;3533;51.246;6.850;2023-11-18T06:28:42;2.77;;;2.63;;
6985;SDS011;3533;51.246;6.850;2023-11-18T06:31:09;2.83;;;2.63;;
6985;SDS011;3533;51.246;6.850;2023-11-18T06:33:37;3.13;;;2.93;;
6985;SDS011;3533;51.246;6.850;2023-11-18T06:36:18;3.80;;;2.80;;
6985;SDS011;3533;51.246;6.850;2023-11-18T06:38:45;2.70;;;2.60;;
6985;SDS011;3533;51.246;6.850;2023-11-18T06:41:12;3.10;;;2.90;;
6985;SDS011;3533;51.246;6.850;2023-11-18T06:43:39;2.93;;;2.73;;
6985;SDS011;3533;51.246;6.850;2023-11-18T06:46:23;3.20;;;3.00;;
6985;SDS011;3533;51.246;6.850;2023-11-18T06:48:51;3.37;;;3.07;;
6985;SDS011;3533;51.246;6.850;2023-11-18T06:51:19;3.20;;;3.00;;
6985;SDS011;3533;51.246;6.850;2023-11-18T06:53:48;3.03;;;2.83;;
6985;SDS011;3533;51.246;6.850;2023-11-18T06:56:14;3.00;;;2.80;;
6985;SDS011;3533;51.246;6.850;2023-11-18T06:58:40;3.20;;;3.00;;
6985;SDS011;3533;51.246;6.850;2023-11-18T07:01:07;2.90;;;2.70;;
6985;SDS011;3533;51.246;6.850;2023-11-18T07:03:34;3.80;;;3.10;;
6985;SDS011;3533;51.246;6.850;2023-11-18T07:06:01;4.00;;;3.20;;
6985;SDS011;3533;51.246;6.850;2023-11-18T07:08:27;2.60;;;2.50;;
6985;SDS011;3533;51.246;6.850;2023-11-18T07:10:53;3.30;;;3.10;;
6985;SDS011;3533;51.246;6.850;2023-11-18T07:13:19;3.10;;;2.93;;
6985;SDS011;3533;51.246;6.850;2023-11-18T07:15:48;3.23;;;2.93;;
6985;SDS011;3533;51.246;6.850;2023-11-18T07:18:15;3.07;;;2.77;;
6985;SDS011;3533;51.246;6.850;2023-11-18T07:20:42;2.70;;;2.50;;
6985;SDS011;3533;51.246;6.850;2023-11-18T07:23:08;2.43;;;2.30;;
6985;SDS011;3533;51.246;6.850;2023-11-18T07:25:34;2.80;;;2.67;;
6985;SDS011;3533;51.246;6.850;2023-11-18T07:27:59;2.90;;;2.70;;
6985;SDS011;3533;51.246;6.850;2023-11-18T07:30:25;2.90;;;2.70;;
6985;SDS011;3533;51.246;6.850;2023-11-18T07:32:51;3.30;;;3.10;;
6985;SDS011;3533;51.246;6.850;2023-11-18T07:35:17;2.80;;;2.60;;
6985;SDS011;3533;51.246;6.850;2023-11-18T07:37:42;3.00;;;2.80;;
6985;SDS011;3533;51.246;6.850;2023-11-18T07:40:08;4.40;;;2.93;;
6985;SDS011;3533;51.246;6.850;2023-11-18T07:42:36;2.90;;;2.70;;
6985;SDS011;3533;51.246;6.850;2023-11-18T07:45:03;3.30;;;3.00;;
6985;SDS011;3533;51.246;6.850;2023-11-18T07:47:32;3.43;;;3.23;;
6985;SDS011;3533;51.246;6.850;2023-11-18T07:49:59;3.00;;;2.80;;
6985;SDS011;3533;51.246;6.850;2023-11-18T07:52:27;2.73;;;2.53;;
6985;SDS011;3533;51.246;6.850;2023-11-18T07:54:54;4.43;;;3.00;;
6985;SDS011;3533;51.246;6.850;2023-11-18T07:57:19;2.80;;;2.60;;
6985;SDS011;3533;51.246;6.850;2023-11-18T07:59:45;3.10;;;2.90;;
6985;SDS011;3533;51.246;6.850;2023-11-18T08:02:11;3.93;;;2.70;;
6985;SDS011;3533;51.246;6.850;2023-11-18T08:04:39;2.70;;;2.50;;
6985;SDS011;3533;51.246;6.850;2023-11-18T08:07:06;2.33;;;2.23;;
6985;SDS011;3533;51.246;6.850;2023-11-18T08:09:32;2.80;;;2.60;;
6985;SDS011;3533;51.246;6.850;2023-11-18T08:11:58;3.00;;;2.80;;
6985;SDS011;3533;51.246;6.850;2023-11-18T08:14:23;3.00;;;2.73;;
6985;SDS011;3533;51.246;6.850;2023-11-18T08:16:49;6.53;;;2.53;;
6985;SDS011;3533;51.246;6.850;2023-11-18T08:19:16;2.90;;;2.60;;
6985;SDS011;3533;51.246;6.850;2023-11-18T08:21:42;3.10;;;2.73;;
6985;SDS011;3533;51.246;6.850;2023-11-18T08:24:08;4.53;;;2.80;;
6985;SDS011;3533;51.246;6.850;2023-11-18T08:26:36;3.40;;;2.63;;
6985;SDS011;3533;51.246;6.850;2023-11-18T08:29:02;5.83;;;2.87;;
6985;SDS011;3533;51.246;6.850;2023-11-18T08:31:28;3.00;;;2.80;;
6985;SDS011;3533;51.246;6.850;2023-11-18T08:33:53;2.90;;;2.70;;
6985;SDS011;3533;51.246;6.850;2023-11-18T08:36:19;2.67;;;2.47;;
6985;SDS011;3533;51.246;6.850;2023-11-18T08:38:51;3.10;;;2.90;;
6985;SDS011;3533;51.246;6.850;2023-11-18T08:41:17;2.50;;;2.40;;
6985;SDS011;3533;51.246;6.850;2023-11-18T08:43:42;2.93;;;2.40;;
6985;SDS011;3533;51.246;6.850;2023-11-18T08:46:08;3.57;;;2.83;;
6985;SDS011;3533;51.246;6.850;2023-11-18T08:48:34;2.90;;;2.70;;
6985;SDS011;3533;51.246;6.850;2023-11-18T08:50:59;2.57;;;2.40;;
6985;SDS011;3533;51.246;6.850;2023-11-18T08:53:26;7.50;;;2.50;;
6985;SDS011;3533;51.246;6.850;2023-11-18T08:55:52;2.70;;;2.40;;
6985;SDS011;3533;51.246;6.850;2023-11-18T08:58:21;2.70;;;2.50;;
6985;SDS011;3533;51.246;6.850;2023-11-18T09:00:48;2.60;;;2.40;;
6985;SDS011;3533;51.246;6.850;2023-11-18T09:03:19;4.20;;;2.50;;
6985;SDS011;3533;51.246;6.850;2023-11-18T09:05:59;3.27;;;2.17;;
6985;SDS011;3533;51.246;6.850;2023-11-18T09:11:00;3.40;;;3.10;;
6985;SDS011;3533;51.246;6.850;2023-11-18T09:13:26;2.67;;;2.47;;
6985;SDS011;3533;51.246;6.850;2023-11-18T09:15:56;2.57;;;2.47;;
6985;SDS011;3533;51.246;6.850;2023-11-18T09:18:23;2.60;;;2.40;;
6985;SDS011;3533;51.246;6.850;2023-11-18T09:20:50;2.50;;;2.40;;
6985;SDS011;3533;51.246;6.850;2023-11-18T09:23:17;2.10;;;2.00;;
6985;SDS011;3533;51.246;6.850;2023-11-18T09:25:45;3.27;;;2.30;;
6985;SDS011;3533;51.246;6.850;2023-11-18T09:28:11;2.63;;;2.43;;
6985;SDS011;3533;51.246;6.850;2023-11-18T09:30:39;4.07;;;3.03;;
6985;SDS011;3533;51.246;6.850;2023-11-18T09:33:14;3.13;;;2.33;;
6985;SDS011;3533;51.246;6.850;2023-11-18T09:36:04;2.90;;;2.40;;
6985;SDS011;3533;51.246;6.850;2023-11-18T09:38:38;3.67;;;3.37;;
6985;SDS011;3533;51.246;6.850;2023-11-18T09:41:08;3.90;;;3.50;;
6985;SDS011;3533;51.246;6.850;2023-11-18T09:43:38;3.20;;;2.93;;
6985;SDS011;3533;51.246;6.850;2023-11-18T09:46:10;8.33;;;2.30;;
6985;SDS011;3533;51.246;6.850;2023-11-18T09:48:49;3.70;;;2.43;;
6985;SDS011;3533;51.246;6.850;2023-11-18T09:51:27;3.63;;;2.77;;
6985;SDS011;3533;51.246;6.850;2023-11-18T09:54:00;3.63;;;2.40;;
6985;SDS011;3533;51.246;6.850;2023-11-18T09:56:41;3.73;;;2.40;;
6985;SDS011;3533;51.246;6.850;2023-11-18T09:59:27;2.60;;;2.50;;
6985;SDS011;3533;51.246;6.850;2023-11-18T10:02:00;4.53;;;2.50;;
6985;SDS011;3533;51.246;6.850;2023-11-18T10:04:35;2.80;;;2.60;;
6985;SDS011;3533;51.246;6.850;2023-11-18T10:07:02;2.70;;;2.17;;
6985;SDS011;3533;51.246;6.850;2023-11-18T10:09:28;3.90;;;2.33;;
6985;SDS011;3533;51.246;6.850;2023-11-18T10:12:02;2.93;;;2.73;;
6985;SDS011;3533;51.246;6.850;2023-11-18T10:14:36;2.23;;;2.03;;
6985;SDS011;3533;51.246;6.850;2023-11-18T10:17:06;3.60;;;2.53;;
6985;SDS011;3533;51.246;6.850;2023-11-18T10:19:51;2.90;;;2.70;;
6985;SDS011;3533;51.246;6.850;2023-11-18T10:22:27;2.83;;;2.47;;
6985;SDS011;3533;51.246;6.850;2023-11-18T10:24:57;2.13;;;1.97;;
6985;SDS011;3533;51.246;6.850;2023-11-18T10:27:29;2.50;;;2.00;;
6985;SDS011;3533;51.246;6.850;2023-11-18T10:29:58;2.60;;;2.40;;
6985;SDS011;3533;51.246;6.850;2023-11-18T10:32:27;2.30;;;1.90;;
6985;SDS011;3533;51.246;6.850;2023-11-18T10:34:56;2.43;;;2.00;;
6985;SDS011;3533;51.246;6.850;2023-11-18T10:37:22;2.30;;;2.20;;
6985;SDS011;3533;51.246;6.850;2023-11-18T10:39:48;4.27;;;2.87;;
6985;SDS011;3533;51.246;6.850;2023-11-18T10:42:16;2.57;;;1.90;;
6985;SDS011;3533;51.246;6.850;2023-11-18T10:44:59;2.60;;;2.40;;
6985;SDS011;3533;51.246;6.850;2023-11-18T10:47:28;3.27;;;2.00;;
6985;SDS011;3533;51.246;6.850;2023-11-18T10:49:58;2.50;;;2.30;;
6985;SDS011;3533;51.246;6.850;2023-11-18T10:52:24;3.63;;;2.03;;
6985;SDS011;3533;51.246;6.850;2023-11-18T10:54:51;3.60;;;2.27;;
6985;SDS011;3533;51.246;6.850;2023-11-18T10:57:21;2.00;;;1.80;;
6985;SDS011;3533;51.246;6.850;2023-11-18T11:00:00;2.03;;;1.90;;
6985;SDS011;3533;51.246;6.850;2023-11-18T11:02:29;2.27;;;2.17;;
6985;SDS011;3533;51.246;6.850;2023-11-18T11:05:00;3.77;;;2.33;;
6985;SDS011;3533;51.246;6.850;2023-11-18T11:07:26;5.00;;;2.73;;
6985;SDS011;3533;51.246;6.850;2023-11-18T11:09:52;2.10;;;2.00;;
6985;SDS011;3533;51.246;6.850;2023-11-18T11:12:21;3.00;;;1.80;;
6985;SDS011;3533;51.246;6.850;2023-11-18T11:17:38;3.20;;;2.13;;
6985;SDS011;3533;51.246;6.850;2023-11-18T11:20:11;2.37;;;2.17;;
6985;SDS011;3533;51.246;6.850;2023-11-18T11:31:38;1.80;;;1.70;;
6985;SDS011;3533;51.246;6.850;2023-11-18T11:34:17;1.70;;;1.60;;
6985;SDS011;3533;51.246;6.850;2023-11-18T11:36:48;2.10;;;2.00;;
6985;SDS011;3533;51.246;6.850;2023-11-18T11:39:18;2.03;;;1.70;;
6985;SDS011;3533;51.246;6.850;2023-11-18T11:41:50;2.00;;;1.90;;
6985;SDS011;3533;51.246;6.850;2023-11-18T11:44:19;1.90;;;1.80;;
6985;SDS011;3533;51.246;6.850;2023-11-18T11:46:46;2.03;;;1.83;;
6985;SDS011;3533;51.246;6.850;2023-11-18T11:49:18;2.10;;;1.90;;
6985;SDS011;3533;51.246;6.850;2023-11-18T11:54:52;2.07;;;1.97;;
6985;SDS011;3533;51.246;6.850;2023-11-18T11:57:49;1.83;;;1.73;;
6985;SDS011;3533;51.246;6.850;2023-11-18T12:00:18;2.40;;;1.60;;
6985;SDS011;3533;51.246;6.850;2023-11-18T12:02:48;1.67;;;1.57;;
6985;SDS011;3533;51.246;6.850;2023-11-18T12:05:17;3.43;;;2.23;;
6985;SDS011;3533;51.246;6.850;2023-11-18T12:07:44;1.70;;;1.60;;
6985;SDS011;3533;51.246;6.850;2023-11-18T12:10:12;1.77;;;1.67;;
6985;SDS011;3533;51.246;6.850;2023-11-18T12:12:45;1.50;;;1.40;;
6985;SDS011;3533;51.246;6.850;2023-11-18T12:15:11;1.70;;;1.50;;
6985;SDS011;3533;51.246;6.850;2023-11-18T12:23:07;1.70;;;1.60;;
6985;SDS011;3533;51.246;6.850;2023-11-18T12:25:39;1.90;;;1.80;;
6985;SDS011;3533;51.246;6.850;2023-11-18T12:28:15;1.60;;;1.50;;
6985;SDS011;3533;51.246;6.850;2023-11-18T12:30:44;1.80;;;1.70;;
6985;SDS011;3533;51.246;6.850;2023-11-18T12:33:23;1.67;;;1.57;;
6985;SDS011;3533;51.246;6.850;2023-11-18T12:41:35;2.47;;;1.80;;
6985;SDS011;3533;51.246;6.850;2023-11-18T12:44:15;1.70;;;1.60;;
6985;SDS011;3533;51.246;6.850;2023-11-18T12:46:51;1.77;;;1.67;;
6985;SDS011;3533;51.246;6.850;2023-11-18T12:49:23;1.60;;;1.50;;
6985;SDS011;3533;51.246;6.850;2023-11-18T12:51:53;1.80;;;1.70;;
6985;SDS011;3533;51.246;6.850;2023-11-18T12:54:20;1.87;;;1.77;;
6985;SDS011;3533;51.246;6.850;2023-11-18T12:56:52;1.70;;;1.60;;
6985;SDS011;3533;51.246;6.850;2023-11-18T12:59:19;1.43;;;1.33;;
6985;SDS011;3533;51.246;6.850;2023-11-18T13:01:52;1.63;;;1.53;;
6985;SDS011;3533;51.246;6.850;2023-11-18T13:04:21;1.60;;;1.50;;
6985;SDS011;3533;51.246;6.850;2023-11-18T13:06:49;1.83;;;1.73;;
6985;SDS011;3533;51.246;6.850;2023-11-18T13:09:19;1.90;;;1.80;;
6985;SDS011;3533;51.246;6.850;2023-11-18T13:11:59;2.13;;;1.60;;
6985;SDS011;3533;51.246;6.850;2023-11-18T13:14:31;1.87;;;1.77;;
6985;SDS011;3533;51.246;6.850;2023-11-18T13:17:14;1.80;;;1.70;;
6985;SDS011;3533;51.246;6.850;2023-11-18T13:19:43;1.70;;;1.60;;
6985;SDS011;3533;51.246;6.850;2023-11-18T13:22:10;1.50;;;1.40;;
6985;SDS011;3533;51.246;6.850;2023-11-18T13:24:38;1.67;;;1.57;;
6985;SDS011;3533;51.246;6.850;2023-11-18T13:27:14;1.63;;;1.53;;
6985;SDS011;3533;51.246;6.850;2023-11-18T13:29:44;2.07;;;1.87;;
6985;SDS011;3533;51.246;6.850;2023-11-18T13:32:13;1.53;;;1.43;;
6985;SDS011;3533;51.246;6.850;2023-11-18T13:34:40;2.40;;;1.30;;
6985;SDS011;3533;51.246;6.850;2023-11-18T13:37:07;2.33;;;1.40;;
6985;SDS011;3533;51.246;6.850;2023-11-18T13:39:41;1.97;;;1.53;;
6985;SDS011;3533;51.246;6.850;2023-11-18T13:42:18;3.67;;;1.80;;
6985;SDS011;3533;51.246;6.850;2023-11-18T13:44:48;1.77;;;1.67;;
6985;SDS011;3533;51.246;6.850;2023-11-18T13:47:18;3.13;;;1.90;;
6985;SDS011;3533;51.246;6.850;2023-11-18T13:49:50;2.10;;;1.73;;
6985;SDS011;3533;51.246;6.850;2023-11-18T13:52:18;1.80;;;1.50;;
6985;SDS011;3533;51.246;6.850;2023-11-18T13:54:46;2.30;;;1.50;;
6985;SDS011;3533;51.246;6.850;2023-11-18T13:57:12;3.43;;;1.47;;
6985;SDS011;3533;51.246;6.850;2023-11-18T13:59:38;3.83;;;2.00;;
6985;SDS011;3533;51.246;6.850;2023-11-18T14:02:04;4.40;;;1.90;;
6985;SDS011;3533;51.246;6.850;2023-11-18T14:04:30;3.83;;;2.07;;
6985;SDS011;3533;51.246;6.850;2023-11-18T14:07:01;3.50;;;1.70;;
6985;SDS011;3533;51.246;6.850;2023-11-18T14:09:34;3.43;;;1.67;;
6985;SDS011;3533;51.246;6.850;2023-11-18T14:12:07;3.30;;;1.80;;
6985;SDS011;3533;51.246;6.850;2023-11-18T14:14:33;4.80;;;2.10;;
6985;SDS011;3533;51.246;6.850;2023-11-18T14:16:59;3.60;;;1.90;;
6985;SDS011;3533;51.246;6.850;2023-11-18T14:19:26;2.17;;;1.60;;
6985;SDS011;3533;51.246;6.850;2023-11-18T14:21:52;2.60;;;2.20;;
6985;SDS011;3533;51.246;6.850;2023-11-18T14:24:19;1.90;;;1.70;;
6985;SDS011;3533;51.246;6.850;2023-11-18T14:26:48;1.60;;;1.50;;
6985;SDS011;3533;51.246;6.850;2023-11-18T14:29:15;10.20;;;1.63;;
6985;SDS011;3533;51.246;6.850;2023-11-18T14:31:41;1.50;;;1.40;;
6985;SDS011;3533;51.246;6.850;2023-11-18T14:34:07;1.70;;;1.60;;
6985;SDS011;3533;51.246;6.850;2023-11-18T14:36:36;1.70;;;1.60;;
6985;SDS011;3533;51.246;6.850;2023-11-18T14:39:02;2.40;;;1.50;;
6985;SDS011;3533;51.246;6.850;2023-11-18T14:41:28;1.70;;;1.60;;
6985;SDS011;3533;51.246;6.850;2023-11-18T14:43:56;2.33;;;2.13;;
6985;SDS011;3533;51.246;6.850;2023-11-18T14:46:24;2.47;;;1.43;;
6985;SDS011;3533;51.246;6.850;2023-11-18T14:48:50;1.70;;;1.60;;
6985;SDS011;3533;51.246;6.850;2023-11-18T14:51:16;2.17;;;1.40;;
6985;SDS011;3533;51.246;6.850;2023-11-18T14:53:42;3.63;;;1.90;;
6985;SDS011;3533;51.246;6.850;2023-11-18T14:56:08;1.87;;;1.30;;
6985;SDS011;3533;51.246;6.850;2023-11-18T14:58:34;2.03;;;1.70;;
6985;SDS011;3533;51.246;6.850;2023-11-18T15:01:03;1.87;;;1.77;;
6985;SDS011;3533;51.246;6.850;2023-11-18T15:03:32;1.67;;;1.57;;
6985;SDS011;3533;51.246;6.850;2023-11-18T15:06:00;2.93;;;1.50;;
6985;SDS011;3533;51.246;6.850;2023-11-18T15:08:25;1.97;;;1.70;;
6985;SDS011;3533;51.246;6.850;2023-11-18T15:10:51;2.17;;;1.97;;
6985;SDS011;3533;51.246;6.850;2023-11-18T15:13:16;1.80;;;1.70;;
6985;SDS011;3533;51.246;6.850;2023-11-18T15:15:43;1.60;;;1.50;;
6985;SDS011;3533;51.246;6.850;2023-11-18T15:18:13;1.60;;;1.50;;
6985;SDS011;3533;51.246;6.850;2023-11-18T15:20:41;2.80;;;1.50;;
6985;SDS011;3533;51.246;6.850;2023-11-18T15:23:11;1.50;;;1.40;;
6985;SDS011;3533;51.246;6.850;2023-11-18T15:25:37;1.67;;;1.57;;
6985;SDS011;3533;51.246;6.850;2023-11-18T15:28:04;1.73;;;1.63;;
6985;SDS011;3533;51.246;6.850;2023-11-18T15:30:34;2.10;;;1.60;;
6985;SDS011;3533;51.246;6.850;2023-11-18T15:33:04;1.67;;;1.53;;
6985;SDS011;3533;51.246;6.850;2023-11-18T15:35:33;1.63;;;1.50;;
6985;SDS011;3533;51.246;6.850;2023-11-18T15:38:02;1.50;;;1.40;;
6985;SDS011;3533;51.246;6.850;2023-11-18T15:40:30;1.40;;;1.30;;
6985;SDS011;3533;51.246;6.850;2023-11-18T15:42:56;1.50;;;1.40;;
6985;SDS011;3533;51.246;6.850;2023-11-18T15:45:22;1.50;;;1.40;;
6985;SDS011;3533;51.246;6.850;2023-11-18T15:47:53;3.67;;;1.40;;
6985;SDS011;3533;51.246;6.850;2023-11-18T15:50:19;1.70;;;1.60;;
6985;SDS011;3533;51.246;6.850;2023-11-18T15:52:46;1.30;;;1.20;;
6985;SDS011;3533;51.246;6.850;2023-11-18T15:55:19;1.50;;;1.40;;